sensor_id;sensor_type;location;lat;lon;timestamp;P1;durP1;ratioP1;P2;durP2;ratioP2
50128;SDS011;36026;45.478;9.224;2023-08-06T00:01:24;1.85;;;0.60;;
50128;SDS011;36026;45.478;9.224;2023-08-06T00:04:28;4.38;;;0.90;;
50128;SDS011;36026;45.478;9.224;2023-08-06T00:07:37;1.90;;;0.47;;
50128;SDS011;36026;45.478;9.224;2023-08-06T00:10:40;1.25;;;0.73;;
50128;SDS011;36026;45.478;9.224;2023-08-06T00:13:42;0.65;;;0.43;;
50128;SDS011;36026;45.478;9.224;2023-08-06T00:16:44;1.13;;;0.75;;
50128;SDS011;36026;45.478;9.224;2023-08-06T00:19:45;1.30;;;0.60;;
50128;SDS011;36026;45.478;9.224;2023-08-06T00:22:47;1.05;;;0.52;;
50128;SDS011;36026;45.478;9.224;2023-08-06T00:25:50;1.35;;;0.80;;
50128;SDS011;36026;45.478;9.224;2023-08-06T00:28:51;2.33;;;0.60;;
50128;SDS011;36026;45.478;9.224;2023-08-06T00:31:53;2.88;;;0.75;;
50128;SDS011;36026;45.478;9.224;2023-08-06T00:34:54;2.58;;;0.70;;
50128;SDS011;36026;45.478;9.224;2023-08-06T00:37:56;2.20;;;0.88;;
50128;SDS011;36026;45.478;9.224;2023-08-06T00:40:59;2.58;;;1.15;;
50128;SDS011;36026;45.478;9.224;2023-08-06T00:44:00;1.63;;;1.05;;
50128;SDS011;36026;45.478;9.224;2023-08-06T00:47:02;2.88;;;0.90;;
50128;SDS011;36026;45.478;9.224;2023-08-06T00:50:04;2.42;;;0.88;;
50128;SDS011;36026;45.478;9.224;2023-08-06T00:53:06;1.15;;;0.70;;
50128;SDS011;36026;45.478;9.224;2023-08-06T00:56:09;2.75;;;0.80;;
50128;SDS011;36026;45.478;9.224;2023-08-06T00:59:10;1.55;;;1.05;;
50128;SDS011;36026;45.478;9.224;2023-08-06T01:02:12;1.08;;;0.70;;
50128;SDS011;36026;45.478;9.224;2023-08-06T01:05:14;2.70;;;0.80;;
50128;SDS011;36026;45.478;9.224;2023-08-06T01:08:19;1.42;;;0.68;;
50128;SDS011;36026;45.478;9.224;2023-08-06T01:11:24;1.77;;;0.80;;
50128;SDS011;36026;45.478;9.224;2023-08-06T01:14:28;1.52;;;0.80;;
50128;SDS011;36026;45.478;9.224;2023-08-06T01:17:30;2.22;;;0.80;;
50128;SDS011;36026;45.478;9.224;2023-08-06T01:20:33;3.03;;;0.80;;
50128;SDS011;36026;45.478;9.224;2023-08-06T01:23:34;2.13;;;0.75;;
50128;SDS011;36026;45.478;9.224;2023-08-06T01:26:37;2.25;;;0.90;;
50128;SDS011;36026;45.478;9.224;2023-08-06T01:29:41;2.55;;;0.82;;
50128;SDS011;36026;45.478;9.224;2023-08-06T01:32:44;1.20;;;0.60;;
50128;SDS011;36026;45.478;9.224;2023-08-06T01:35:48;1.15;;;0.70;;
50128;SDS011;36026;45.478;9.224;2023-08-06T01:38:51;1.13;;;0.82;;
50128;SDS011;36026;45.478;9.224;2023-08-06T01:41:53;1.15;;;0.77;;
50128;SDS011;36026;45.478;9.224;2023-08-06T01:44:54;1.48;;;0.82;;
50128;SDS011;36026;45.478;9.224;2023-08-06T01:47:56;1.52;;;0.80;;
50128;SDS011;36026;45.478;9.224;2023-08-06T01:50:59;2.00;;;0.98;;
50128;SDS011;36026;45.478;9.224;2023-08-06T01:54:00;1.27;;;0.80;;
50128;SDS011;36026;45.478;9.224;2023-08-06T01:57:02;3.58;;;0.90;;
50128;SDS011;36026;45.478;9.224;2023-08-06T02:00:04;1.77;;;0.80;;
50128;SDS011;36026;45.478;9.224;2023-08-06T02:03:05;1.48;;;0.82;;
50128;SDS011;36026;45.478;9.224;2023-08-06T02:06:08;2.03;;;0.85;;
50128;SDS011;36026;45.478;9.224;2023-08-06T02:09:10;1.98;;;0.80;;
50128;SDS011;36026;45.478;9.224;2023-08-06T02:12:11;1.48;;;1.00;;
50128;SDS011;36026;45.478;9.224;2023-08-06T02:15:13;1.60;;;0.80;;
50128;SDS011;36026;45.478;9.224;2023-08-06T02:18:14;1.30;;;0.70;;
50128;SDS011;36026;45.478;9.224;2023-08-06T02:21:17;1.23;;;0.80;;
50128;SDS011;36026;45.478;9.224;2023-08-06T02:24:19;2.03;;;0.98;;
50128;SDS011;36026;45.478;9.224;2023-08-06T02:27:20;2.78;;;1.38;;
50128;SDS011;36026;45.478;9.224;2023-08-06T02:30:22;3.58;;;1.00;;
50128;SDS011;36026;45.478;9.224;2023-08-06T02:33:23;2.17;;;1.20;;
50128;SDS011;36026;45.478;9.224;2023-08-06T02:36:26;3.03;;;1.13;;
50128;SDS011;36026;45.478;9.224;2023-08-06T02:39:29;1.83;;;0.93;;
50128;SDS011;36026;45.478;9.224;2023-08-06T02:42:30;1.75;;;0.90;;
50128;SDS011;36026;45.478;9.224;2023-08-06T02:45:32;1.70;;;0.80;;
50128;SDS011;36026;45.478;9.224;2023-08-06T02:48:33;3.42;;;1.10;;
50128;SDS011;36026;45.478;9.224;2023-08-06T02:51:36;3.95;;;1.10;;
50128;SDS011;36026;45.478;9.224;2023-08-06T02:54:38;1.50;;;0.80;;
50128;SDS011;36026;45.478;9.224;2023-08-06T02:57:39;1.65;;;1.10;;
50128;SDS011;36026;45.478;9.224;2023-08-06T03:00:41;1.30;;;0.80;;
50128;SDS011;36026;45.478;9.224;2023-08-06T03:03:43;1.55;;;1.00;;
50128;SDS011;36026;45.478;9.224;2023-08-06T03:06:50;2.45;;;0.70;;
50128;SDS011;36026;45.478;9.224;2023-08-06T03:09:51;2.03;;;0.80;;
50128;SDS011;36026;45.478;9.224;2023-08-06T03:12:53;1.08;;;0.70;;
50128;SDS011;36026;45.478;9.224;2023-08-06T03:15:54;1.83;;;0.80;;
50128;SDS011;36026;45.478;9.224;2023-08-06T03:18:56;0.95;;;0.75;;
50128;SDS011;36026;45.478;9.224;2023-08-06T03:21:59;1.13;;;0.75;;
50128;SDS011;36026;45.478;9.224;2023-08-06T03:25:00;1.00;;;0.63;;
50128;SDS011;36026;45.478;9.224;2023-08-06T03:28:02;1.23;;;0.70;;
50128;SDS011;36026;45.478;9.224;2023-08-06T03:31:04;3.15;;;0.90;;
50128;SDS011;36026;45.478;9.224;2023-08-06T03:34:05;1.33;;;0.88;;
50128;SDS011;36026;45.478;9.224;2023-08-06T03:37:08;1.67;;;0.95;;
50128;SDS011;36026;45.478;9.224;2023-08-06T03:40:10;2.53;;;0.80;;
50128;SDS011;36026;45.478;9.224;2023-08-06T03:43:11;1.10;;;0.60;;
50128;SDS011;36026;45.478;9.224;2023-08-06T03:46:13;1.35;;;0.70;;
50128;SDS011;36026;45.478;9.224;2023-08-06T03:49:16;2.03;;;0.93;;
50128;SDS011;36026;45.478;9.224;2023-08-06T03:52:19;1.58;;;0.80;;
50128;SDS011;36026;45.478;9.224;2023-08-06T03:55:21;4.65;;;1.05;;
50128;SDS011;36026;45.478;9.224;2023-08-06T03:58:22;2.28;;;1.25;;
50128;SDS011;36026;45.478;9.224;2023-08-06T04:01:24;1.33;;;0.90;;
50128;SDS011;36026;45.478;9.224;2023-08-06T04:04:25;1.55;;;0.90;;
50128;SDS011;36026;45.478;9.224;2023-08-06T04:07:28;1.40;;;0.90;;
50128;SDS011;36026;45.478;9.224;2023-08-06T04:10:29;1.52;;;0.70;;
50128;SDS011;36026;45.478;9.224;2023-08-06T04:13:31;2.15;;;1.00;;
50128;SDS011;36026;45.478;9.224;2023-08-06T04:16:32;2.70;;;0.80;;
50128;SDS011;36026;45.478;9.224;2023-08-06T04:19:34;1.27;;;0.80;;
50128;SDS011;36026;45.478;9.224;2023-08-06T04:22:37;1.27;;;0.70;;
50128;SDS011;36026;45.478;9.224;2023-08-06T04:25:39;1.58;;;1.00;;
50128;SDS011;36026;45.478;9.224;2023-08-06T04:28:43;1.55;;;0.90;;
50128;SDS011;36026;45.478;9.224;2023-08-06T04:31:45;3.60;;;1.30;;
50128;SDS011;36026;45.478;9.224;2023-08-06T04:34:46;2.85;;;1.20;;
50128;SDS011;36026;45.478;9.224;2023-08-06T04:37:49;3.28;;;1.00;;
50128;SDS011;36026;45.478;9.224;2023-08-06T04:40:51;1.83;;;1.20;;
50128;SDS011;36026;45.478;9.224;2023-08-06T04:43:52;2.05;;;1.10;;
50128;SDS011;36026;45.478;9.224;2023-08-06T04:46:54;2.78;;;1.48;;
50128;SDS011;36026;45.478;9.224;2023-08-06T04:49:55;3.78;;;1.10;;
50128;SDS011;36026;45.478;9.224;2023-08-06T04:52:58;6.78;;;1.50;;
50128;SDS011;36026;45.478;9.224;2023-08-06T04:56:00;2.47;;;1.40;;
50128;SDS011;36026;45.478;9.224;2023-08-06T04:59:01;4.30;;;1.45;;
50128;SDS011;36026;45.478;9.224;2023-08-06T05:02:03;3.17;;;1.50;;
50128;SDS011;36026;45.478;9.224;2023-08-06T05:05:05;3.25;;;1.30;;
50128;SDS011;36026;45.478;9.224;2023-08-06T05:08:13;2.65;;;1.80;;
50128;SDS011;36026;45.478;9.224;2023-08-06T05:11:15;3.40;;;1.30;;
50128;SDS011;36026;45.478;9.224;2023-08-06T05:14:17;3.53;;;1.52;;
50128;SDS011;36026;45.478;9.224;2023-08-06T05:17:18;4.13;;;1.60;;
50128;SDS011;36026;45.478;9.224;2023-08-06T05:20:20;4.50;;;1.70;;
50128;SDS011;36026;45.478;9.224;2023-08-06T05:23:23;3.28;;;1.38;;
50128;SDS011;36026;45.478;9.224;2023-08-06T05:26:24;2.60;;;1.43;;
50128;SDS011;36026;45.478;9.224;2023-08-06T05:29:26;2.30;;;1.42;;
50128;SDS011;36026;45.478;9.224;2023-08-06T05:32:28;2.90;;;1.48;;
50128;SDS011;36026;45.478;9.224;2023-08-06T05:35:29;2.45;;;1.40;;
50128;SDS011;36026;45.478;9.224;2023-08-06T05:38:32;1.67;;;1.33;;
50128;SDS011;36026;45.478;9.224;2023-08-06T05:41:34;3.45;;;1.52;;
50128;SDS011;36026;45.478;9.224;2023-08-06T05:44:35;2.10;;;1.50;;
50128;SDS011;36026;45.478;9.224;2023-08-06T05:47:37;2.80;;;1.80;;
50128;SDS011;36026;45.478;9.224;2023-08-06T05:50:38;5.75;;;2.22;;
50128;SDS011;36026;45.478;9.224;2023-08-06T05:53:41;2.50;;;1.98;;
50128;SDS011;36026;45.478;9.224;2023-08-06T05:56:43;3.70;;;2.00;;
50128;SDS011;36026;45.478;9.224;2023-08-06T05:59:45;4.05;;;1.67;;
50128;SDS011;36026;45.478;9.224;2023-08-06T06:02:46;2.60;;;1.70;;
50128;SDS011;36026;45.478;9.224;2023-08-06T06:05:48;2.92;;;1.52;;
50128;SDS011;36026;45.478;9.224;2023-08-06T06:08:51;4.43;;;1.75;;
50128;SDS011;36026;45.478;9.224;2023-08-06T06:11:52;4.00;;;1.80;;
50128;SDS011;36026;45.478;9.224;2023-08-06T06:14:54;2.50;;;1.75;;
50128;SDS011;36026;45.478;9.224;2023-08-06T06:17:55;2.40;;;1.33;;
50128;SDS011;36026;45.478;9.224;2023-08-06T06:20:57;1.60;;;1.20;;
50128;SDS011;36026;45.478;9.224;2023-08-06T06:24:00;2.65;;;1.15;;
50128;SDS011;36026;45.478;9.224;2023-08-06T06:27:01;3.03;;;0.93;;
50128;SDS011;36026;45.478;9.224;2023-08-06T06:30:03;2.70;;;1.10;;
50128;SDS011;36026;45.478;9.224;2023-08-06T06:33:05;2.55;;;1.10;;
50128;SDS011;36026;45.478;9.224;2023-08-06T06:36:06;2.08;;;1.20;;
50128;SDS011;36026;45.478;9.224;2023-08-06T06:39:09;4.13;;;1.25;;
50128;SDS011;36026;45.478;9.224;2023-08-06T06:42:11;2.72;;;1.40;;
50128;SDS011;36026;45.478;9.224;2023-08-06T06:45:15;3.03;;;1.77;;
50128;SDS011;36026;45.478;9.224;2023-08-06T06:48:16;2.53;;;1.60;;
50128;SDS011;36026;45.478;9.224;2023-08-06T06:51:18;3.67;;;1.58;;
50128;SDS011;36026;45.478;9.224;2023-08-06T06:54:21;2.00;;;1.42;;
50128;SDS011;36026;45.478;9.224;2023-08-06T06:57:22;1.92;;;1.40;;
50128;SDS011;36026;45.478;9.224;2023-08-06T07:00:24;2.10;;;1.40;;
50128;SDS011;36026;45.478;9.224;2023-08-06T07:03:25;2.70;;;1.40;;
50128;SDS011;36026;45.478;9.224;2023-08-06T07:06:27;1.73;;;1.33;;
50128;SDS011;36026;45.478;9.224;2023-08-06T07:09:30;2.70;;;1.30;;
50128;SDS011;36026;45.478;9.224;2023-08-06T07:12:32;2.03;;;1.30;;
50128;SDS011;36026;45.478;9.224;2023-08-06T07:15:34;1.48;;;1.10;;
50128;SDS011;36026;45.478;9.224;2023-08-06T07:18:35;2.25;;;1.20;;
50128;SDS011;36026;45.478;9.224;2023-08-06T07:21:36;1.80;;;0.88;;
50128;SDS011;36026;45.478;9.224;2023-08-06T07:24:39;2.30;;;0.90;;
50128;SDS011;36026;45.478;9.224;2023-08-06T07:27:41;1.58;;;0.90;;
50128;SDS011;36026;45.478;9.224;2023-08-06T07:30:43;2.28;;;1.10;;
50128;SDS011;36026;45.478;9.224;2023-08-06T07:33:44;2.95;;;0.82;;
50128;SDS011;36026;45.478;9.224;2023-08-06T07:36:46;1.52;;;0.90;;
50128;SDS011;36026;45.478;9.224;2023-08-06T07:39:49;1.70;;;1.05;;
50128;SDS011;36026;45.478;9.224;2023-08-06T07:42:50;1.67;;;0.80;;
50128;SDS011;36026;45.478;9.224;2023-08-06T07:45:52;3.65;;;0.98;;
50128;SDS011;36026;45.478;9.224;2023-08-06T07:48:53;3.67;;;0.95;;
50128;SDS011;36026;45.478;9.224;2023-08-06T07:51:55;2.55;;;1.00;;
50128;SDS011;36026;45.478;9.224;2023-08-06T07:54:57;1.58;;;0.88;;
50128;SDS011;36026;45.478;9.224;2023-08-06T07:58:00;2.22;;;1.02;;
50128;SDS011;36026;45.478;9.224;2023-08-06T08:01:02;2.67;;;0.82;;
50128;SDS011;36026;45.478;9.224;2023-08-06T08:04:03;1.10;;;0.70;;
50128;SDS011;36026;45.478;9.224;2023-08-06T08:07:05;1.38;;;0.70;;
50128;SDS011;36026;45.478;9.224;2023-08-06T08:10:08;2.20;;;0.80;;
50128;SDS011;36026;45.478;9.224;2023-08-06T08:13:19;3.08;;;0.90;;
50128;SDS011;36026;45.478;9.224;2023-08-06T08:16:20;1.55;;;1.02;;
50128;SDS011;36026;45.478;9.224;2023-08-06T08:19:34;1.33;;;0.80;;
50128;SDS011;36026;45.478;9.224;2023-08-06T08:22:36;1.00;;;0.70;;
50128;SDS011;36026;45.478;9.224;2023-08-06T08:25:39;0.82;;;0.70;;
50128;SDS011;36026;45.478;9.224;2023-08-06T08:28:40;1.35;;;0.80;;
50128;SDS011;36026;45.478;9.224;2023-08-06T08:31:42;2.05;;;1.02;;
50128;SDS011;36026;45.478;9.224;2023-08-06T08:34:44;1.73;;;0.90;;
50128;SDS011;36026;45.478;9.224;2023-08-06T08:37:46;1.45;;;0.70;;
50128;SDS011;36026;45.478;9.224;2023-08-06T08:41:02;1.35;;;0.75;;
50128;SDS011;36026;45.478;9.224;2023-08-06T08:44:06;1.58;;;0.88;;
50128;SDS011;36026;45.478;9.224;2023-08-06T08:47:09;1.63;;;0.80;;
50128;SDS011;36026;45.478;9.224;2023-08-06T08:50:11;2.90;;;0.90;;
50128;SDS011;36026;45.478;9.224;2023-08-06T08:53:14;1.33;;;0.82;;
50128;SDS011;36026;45.478;9.224;2023-08-06T08:56:18;1.50;;;0.90;;
50128;SDS011;36026;45.478;9.224;2023-08-06T08:59:20;1.30;;;0.90;;
50128;SDS011;36026;45.478;9.224;2023-08-06T09:02:21;1.42;;;0.90;;
50128;SDS011;36026;45.478;9.224;2023-08-06T09:05:26;1.30;;;0.80;;
50128;SDS011;36026;45.478;9.224;2023-08-06T09:08:30;1.45;;;0.80;;
50128;SDS011;36026;45.478;9.224;2023-08-06T09:11:36;1.50;;;0.80;;
50128;SDS011;36026;45.478;9.224;2023-08-06T09:14:39;1.08;;;0.70;;
50128;SDS011;36026;45.478;9.224;2023-08-06T09:17:42;1.98;;;0.90;;
50128;SDS011;36026;45.478;9.224;2023-08-06T09:20:43;1.42;;;0.80;;
50128;SDS011;36026;45.478;9.224;2023-08-06T09:23:49;1.05;;;0.63;;
50128;SDS011;36026;45.478;9.224;2023-08-06T09:27:11;0.82;;;0.50;;
50128;SDS011;36026;45.478;9.224;2023-08-06T09:30:19;0.93;;;0.57;;
50128;SDS011;36026;45.478;9.224;2023-08-06T09:33:29;1.23;;;0.63;;
50128;SDS011;36026;45.478;9.224;2023-08-06T09:36:31;2.50;;;0.65;;
50128;SDS011;36026;45.478;9.224;2023-08-06T09:39:33;0.93;;;0.50;;
50128;SDS011;36026;45.478;9.224;2023-08-06T09:42:41;0.60;;;0.50;;
50128;SDS011;36026;45.478;9.224;2023-08-06T09:45:43;2.38;;;0.70;;
50128;SDS011;36026;45.478;9.224;2023-08-06T09:48:45;1.05;;;0.60;;
50128;SDS011;36026;45.478;9.224;2023-08-06T09:51:47;1.70;;;0.53;;
50128;SDS011;36026;45.478;9.224;2023-08-06T09:54:51;1.27;;;0.60;;
50128;SDS011;36026;45.478;9.224;2023-08-06T09:57:54;1.08;;;0.50;;
50128;SDS011;36026;45.478;9.224;2023-08-06T10:00:56;3.90;;;0.73;;
50128;SDS011;36026;45.478;9.224;2023-08-06T10:03:58;0.70;;;0.40;;
50128;SDS011;36026;45.478;9.224;2023-08-06T10:06:59;1.08;;;0.65;;
50128;SDS011;36026;45.478;9.224;2023-08-06T10:10:02;1.02;;;0.45;;
50128;SDS011;36026;45.478;9.224;2023-08-06T10:13:05;0.80;;;0.43;;
50128;SDS011;36026;45.478;9.224;2023-08-06T10:16:07;1.10;;;0.77;;
50128;SDS011;36026;45.478;9.224;2023-08-06T10:19:10;1.10;;;0.68;;
50128;SDS011;36026;45.478;9.224;2023-08-06T10:22:32;2.53;;;0.75;;
50128;SDS011;36026;45.478;9.224;2023-08-06T10:25:39;1.23;;;0.70;;
50128;SDS011;36026;45.478;9.224;2023-08-06T10:28:43;0.63;;;0.60;;
50128;SDS011;36026;45.478;9.224;2023-08-06T10:32:24;0.90;;;0.80;;
50128;SDS011;36026;45.478;9.224;2023-08-06T10:35:27;0.90;;;0.60;;
50128;SDS011;36026;45.478;9.224;2023-08-06T10:38:30;0.77;;;0.70;;
50128;SDS011;36026;45.478;9.224;2023-08-06T10:41:32;0.95;;;0.63;;
50128;SDS011;36026;45.478;9.224;2023-08-06T10:44:56;0.70;;;0.60;;
50128;SDS011;36026;45.478;9.224;2023-08-06T10:48:12;0.63;;;0.45;;
50128;SDS011;36026;45.478;9.224;2023-08-06T10:51:26;0.70;;;0.55;;
50128;SDS011;36026;45.478;9.224;2023-08-06T10:54:28;1.13;;;0.50;;
50128;SDS011;36026;45.478;9.224;2023-08-06T10:57:30;0.47;;;0.40;;
50128;SDS011;36026;45.478;9.224;2023-08-06T11:00:43;0.85;;;0.57;;
50128;SDS011;36026;45.478;9.224;2023-08-06T11:03:45;0.82;;;0.50;;
50128;SDS011;36026;45.478;9.224;2023-08-06T11:06:51;0.80;;;0.60;;
50128;SDS011;36026;45.478;9.224;2023-08-06T11:09:53;2.28;;;0.60;;
50128;SDS011;36026;45.478;9.224;2023-08-06T11:13:02;0.95;;;0.57;;
50128;SDS011;36026;45.478;9.224;2023-08-06T11:16:05;1.10;;;0.80;;
50128;SDS011;36026;45.478;9.224;2023-08-06T11:19:07;0.93;;;0.70;;
50128;SDS011;36026;45.478;9.224;2023-08-06T11:22:08;0.93;;;0.60;;
50128;SDS011;36026;45.478;9.224;2023-08-06T11:25:10;1.20;;;0.50;;
50128;SDS011;36026;45.478;9.224;2023-08-06T11:28:12;1.42;;;0.70;;
50128;SDS011;36026;45.478;9.224;2023-08-06T11:31:21;0.87;;;0.67;;
50128;SDS011;36026;45.478;9.224;2023-08-06T11:34:23;0.90;;;0.70;;
50128;SDS011;36026;45.478;9.224;2023-08-06T11:37:25;2.77;;;1.13;;
50128;SDS011;36026;45.478;9.224;2023-08-06T11:40:26;1.90;;;0.80;;
50128;SDS011;36026;45.478;9.224;2023-08-06T11:43:29;1.33;;;0.70;;
50128;SDS011;36026;45.478;9.224;2023-08-06T11:49:50;0.93;;;0.60;;
50128;SDS011;36026;45.478;9.224;2023-08-06T11:52:54;1.23;;;0.88;;
50128;SDS011;36026;45.478;9.224;2023-08-06T11:55:57;3.95;;;0.75;;
50128;SDS011;36026;45.478;9.224;2023-08-06T11:58:59;0.95;;;0.70;;
50128;SDS011;36026;45.478;9.224;2023-08-06T12:02:02;3.95;;;0.60;;
50128;SDS011;36026;45.478;9.224;2023-08-06T12:05:09;1.48;;;0.80;;
50128;SDS011;36026;45.478;9.224;2023-08-06T12:11:30;1.00;;;0.73;;
50128;SDS011;36026;45.478;9.224;2023-08-06T12:14:32;1.07;;;0.70;;
50128;SDS011;36026;45.478;9.224;2023-08-06T12:17:34;1.15;;;0.75;;
50128;SDS011;36026;45.478;9.224;2023-08-06T12:20:37;1.38;;;0.68;;
50128;SDS011;36026;45.478;9.224;2023-08-06T12:23:39;1.58;;;0.70;;
50128;SDS011;36026;45.478;9.224;2023-08-06T12:26:50;0.70;;;0.60;;
50128;SDS011;36026;45.478;9.224;2023-08-06T12:29:52;1.20;;;0.70;;
50128;SDS011;36026;45.478;9.224;2023-08-06T12:32:53;1.13;;;0.70;;
50128;SDS011;36026;45.478;9.224;2023-08-06T12:35:56;2.45;;;0.82;;
50128;SDS011;36026;45.478;9.224;2023-08-06T12:38:58;1.67;;;0.80;;
50128;SDS011;36026;45.478;9.224;2023-08-06T12:41:59;1.00;;;0.70;;
50128;SDS011;36026;45.478;9.224;2023-08-06T12:45:01;1.02;;;0.68;;
50128;SDS011;36026;45.478;9.224;2023-08-06T12:48:03;1.15;;;0.70;;
50128;SDS011;36026;45.478;9.224;2023-08-06T12:51:06;1.25;;;0.75;;
50128;SDS011;36026;45.478;9.224;2023-08-06T12:54:08;1.00;;;0.80;;
50128;SDS011;36026;45.478;9.224;2023-08-06T13:00:24;0.77;;;0.63;;
50128;SDS011;36026;45.478;9.224;2023-08-06T13:03:26;1.42;;;0.80;;
50128;SDS011;36026;45.478;9.224;2023-08-06T13:06:29;0.90;;;0.65;;
50128;SDS011;36026;45.478;9.224;2023-08-06T13:09:39;1.05;;;0.68;;
50128;SDS011;36026;45.478;9.224;2023-08-06T13:12:40;1.92;;;0.90;;
50128;SDS011;36026;45.478;9.224;2023-08-06T13:15:51;1.10;;;0.80;;
50128;SDS011;36026;45.478;9.224;2023-08-06T13:18:53;1.75;;;0.65;;
50128;SDS011;36026;45.478;9.224;2023-08-06T13:22:02;0.50;;;0.40;;
50128;SDS011;36026;45.478;9.224;2023-08-06T13:25:20;1.88;;;0.40;;
50128;SDS011;36026;45.478;9.224;2023-08-06T13:31:37;2.45;;;0.50;;
50128;SDS011;36026;45.478;9.224;2023-08-06T13:34:39;0.63;;;0.32;;
50128;SDS011;36026;45.478;9.224;2023-08-06T13:40:43;0.50;;;0.30;;
50128;SDS011;36026;45.478;9.224;2023-08-06T13:43:46;1.17;;;0.50;;
50128;SDS011;36026;45.478;9.224;2023-08-06T13:46:48;1.27;;;0.40;;
50128;SDS011;36026;45.478;9.224;2023-08-06T13:49:49;0.30;;;0.30;;
50128;SDS011;36026;45.478;9.224;2023-08-06T13:52:51;0.40;;;0.40;;
50128;SDS011;36026;45.478;9.224;2023-08-06T13:56:04;1.23;;;0.40;;
50128;SDS011;36026;45.478;9.224;2023-08-06T13:59:15;0.32;;;0.32;;
50128;SDS011;36026;45.478;9.224;2023-08-06T14:02:27;0.30;;;0.30;;
50128;SDS011;36026;45.478;9.224;2023-08-06T14:05:42;1.60;;;0.30;;
50128;SDS011;36026;45.478;9.224;2023-08-06T14:08:44;0.65;;;0.40;;
50128;SDS011;36026;45.478;9.224;2023-08-06T14:11:47;0.82;;;0.30;;
50128;SDS011;36026;45.478;9.224;2023-08-06T14:14:48;0.88;;;0.40;;
50128;SDS011;36026;45.478;9.224;2023-08-06T14:20:52;0.60;;;0.40;;
50128;SDS011;36026;45.478;9.224;2023-08-06T14:23:53;0.55;;;0.38;;
50128;SDS011;36026;45.478;9.224;2023-08-06T14:26:56;1.40;;;0.15;;
50128;SDS011;36026;45.478;9.224;2023-08-06T14:29:58;0.88;;;0.30;;
50128;SDS011;36026;45.478;9.224;2023-08-06T14:33:00;0.88;;;0.38;;
50128;SDS011;36026;45.478;9.224;2023-08-06T14:36:03;2.92;;;0.32;;
50128;SDS011;36026;45.478;9.224;2023-08-06T14:39:05;2.60;;;0.40;;
50128;SDS011;36026;45.478;9.224;2023-08-06T14:42:08;2.35;;;0.38;;
50128;SDS011;36026;45.478;9.224;2023-08-06T14:45:10;0.50;;;0.30;;
50128;SDS011;36026;45.478;9.224;2023-08-06T14:48:13;0.40;;;0.40;;
50128;SDS011;36026;45.478;9.224;2023-08-06T14:51:15;0.98;;;0.40;;
50128;SDS011;36026;45.478;9.224;2023-08-06T14:54:21;0.77;;;0.50;;
50128;SDS011;36026;45.478;9.224;2023-08-06T14:57:24;1.42;;;0.30;;
50128;SDS011;36026;45.478;9.224;2023-08-06T15:00:29;0.98;;;0.30;;
50128;SDS011;36026;45.478;9.224;2023-08-06T15:06:55;1.05;;;0.28;;
50128;SDS011;36026;45.478;9.224;2023-08-06T15:09:56;0.35;;;0.28;;
50128;SDS011;36026;45.478;9.224;2023-08-06T15:13:04;0.50;;;0.30;;
50128;SDS011;36026;45.478;9.224;2023-08-06T15:16:08;0.30;;;0.20;;
50128;SDS011;36026;45.478;9.224;2023-08-06T15:19:10;0.22;;;0.20;;
50128;SDS011;36026;45.478;9.224;2023-08-06T15:22:20;2.05;;;0.30;;
50128;SDS011;36026;45.478;9.224;2023-08-06T15:25:22;0.20;;;0.20;;
50128;SDS011;36026;45.478;9.224;2023-08-06T15:28:24;2.13;;;0.30;;
50128;SDS011;36026;45.478;9.224;2023-08-06T15:31:28;0.13;;;0.13;;
50128;SDS011;36026;45.478;9.224;2023-08-06T15:34:36;0.47;;;0.30;;
50128;SDS011;36026;45.478;9.224;2023-08-06T15:37:38;0.13;;;0.10;;
50128;SDS011;36026;45.478;9.224;2023-08-06T15:40:39;0.52;;;0.10;;
50128;SDS011;36026;45.478;9.224;2023-08-06T15:43:43;0.27;;;0.23;;
50128;SDS011;36026;45.478;9.224;2023-08-06T15:46:47;2.40;;;0.57;;
50128;SDS011;36026;45.478;9.224;2023-08-06T15:49:49;2.83;;;0.67;;
50128;SDS011;36026;45.478;9.224;2023-08-06T15:52:50;0.50;;;0.30;;
50128;SDS011;36026;45.478;9.224;2023-08-06T15:55:52;1.97;;;0.27;;
50128;SDS011;36026;45.478;9.224;2023-08-06T15:58:55;2.80;;;0.30;;
50128;SDS011;36026;45.478;9.224;2023-08-06T16:01:57;0.55;;;0.25;;
50128;SDS011;36026;45.478;9.224;2023-08-06T16:04:59;0.55;;;0.20;;
50128;SDS011;36026;45.478;9.224;2023-08-06T16:08:00;0.45;;;0.25;;
50128;SDS011;36026;45.478;9.224;2023-08-06T16:11:02;0.47;;;0.22;;
50128;SDS011;36026;45.478;9.224;2023-08-06T16:14:06;0.98;;;0.43;;
50128;SDS011;36026;45.478;9.224;2023-08-06T16:17:10;1.88;;;0.30;;
50128;SDS011;36026;45.478;9.224;2023-08-06T16:20:12;0.55;;;0.30;;
50128;SDS011;36026;45.478;9.224;2023-08-06T16:23:14;0.43;;;0.20;;
50128;SDS011;36026;45.478;9.224;2023-08-06T16:26:16;0.40;;;0.20;;
50128;SDS011;36026;45.478;9.224;2023-08-06T16:29:19;0.43;;;0.20;;
50128;SDS011;36026;45.478;9.224;2023-08-06T16:32:20;0.70;;;0.40;;
50128;SDS011;36026;45.478;9.224;2023-08-06T16:35:22;0.63;;;0.30;;
50128;SDS011;36026;45.478;9.224;2023-08-06T16:38:24;0.28;;;0.20;;
50128;SDS011;36026;45.478;9.224;2023-08-06T16:41:25;0.17;;;0.17;;
50128;SDS011;36026;45.478;9.224;2023-08-06T16:44:30;0.73;;;0.20;;
50128;SDS011;36026;45.478;9.224;2023-08-06T16:47:32;1.42;;;0.20;;
50128;SDS011;36026;45.478;9.224;2023-08-06T16:50:33;0.30;;;0.17;;
50128;SDS011;36026;45.478;9.224;2023-08-06T16:53:35;0.57;;;0.30;;
50128;SDS011;36026;45.478;9.224;2023-08-06T16:56:36;0.52;;;0.28;;
50128;SDS011;36026;45.478;9.224;2023-08-06T16:59:39;1.17;;;0.40;;
50128;SDS011;36026;45.478;9.224;2023-08-06T17:02:41;2.22;;;0.30;;
50128;SDS011;36026;45.478;9.224;2023-08-06T17:05:42;1.75;;;0.60;;
50128;SDS011;36026;45.478;9.224;2023-08-06T17:08:56;0.40;;;0.20;;
50128;SDS011;36026;45.478;9.224;2023-08-06T17:11:58;1.38;;;0.50;;
50128;SDS011;36026;45.478;9.224;2023-08-06T17:15:01;0.63;;;0.30;;
50128;SDS011;36026;45.478;9.224;2023-08-06T17:18:02;1.17;;;0.45;;
50128;SDS011;36026;45.478;9.224;2023-08-06T17:21:04;0.60;;;0.30;;
50128;SDS011;36026;45.478;9.224;2023-08-06T17:24:26;1.20;;;0.30;;
50128;SDS011;36026;45.478;9.224;2023-08-06T17:27:46;2.28;;;0.50;;
50128;SDS011;36026;45.478;9.224;2023-08-06T17:30:49;1.05;;;0.50;;
50128;SDS011;36026;45.478;9.224;2023-08-06T17:36:58;2.05;;;0.40;;
50128;SDS011;36026;45.478;9.224;2023-08-06T17:40:00;0.82;;;0.50;;
50128;SDS011;36026;45.478;9.224;2023-08-06T17:43:01;0.82;;;0.40;;
50128;SDS011;36026;45.478;9.224;2023-08-06T17:46:04;1.23;;;0.50;;
50128;SDS011;36026;45.478;9.224;2023-08-06T17:55:45;1.35;;;0.40;;
50128;SDS011;36026;45.478;9.224;2023-08-06T17:58:46;0.38;;;0.22;;
50128;SDS011;36026;45.478;9.224;2023-08-06T18:01:49;0.60;;;0.40;;
50128;SDS011;36026;45.478;9.224;2023-08-06T18:04:51;0.40;;;0.20;;
50128;SDS011;36026;45.478;9.224;2023-08-06T18:07:52;0.50;;;0.30;;
50128;SDS011;36026;45.478;9.224;2023-08-06T18:10:54;1.55;;;0.32;;
50128;SDS011;36026;45.478;9.224;2023-08-06T18:13:55;0.70;;;0.40;;
50128;SDS011;36026;45.478;9.224;2023-08-06T18:27:47;0.82;;;0.52;;
50128;SDS011;36026;45.478;9.224;2023-08-06T18:30:57;0.68;;;0.40;;
50128;SDS011;36026;45.478;9.224;2023-08-06T18:33:59;0.60;;;0.40;;
50128;SDS011;36026;45.478;9.224;2023-08-06T18:37:00;0.95;;;0.40;;
50128;SDS011;36026;45.478;9.224;2023-08-06T18:40:02;0.60;;;0.40;;
50128;SDS011;36026;45.478;9.224;2023-08-06T18:43:05;0.77;;;0.43;;
50128;SDS011;36026;45.478;9.224;2023-08-06T18:46:08;0.70;;;0.40;;
50128;SDS011;36026;45.478;9.224;2023-08-06T18:49:12;1.38;;;0.63;;
50128;SDS011;36026;45.478;9.224;2023-08-06T18:52:14;1.92;;;0.40;;
50128;SDS011;36026;45.478;9.224;2023-08-06T18:55:26;3.03;;;0.50;;
50128;SDS011;36026;45.478;9.224;2023-08-06T19:01:48;1.42;;;0.30;;
50128;SDS011;36026;45.478;9.224;2023-08-06T19:04:49;0.55;;;0.20;;
50128;SDS011;36026;45.478;9.224;2023-08-06T19:07:51;0.80;;;0.30;;
50128;SDS011;36026;45.478;9.224;2023-08-06T19:10:53;1.63;;;0.35;;